Time;durP1;ratioP1;P1;durP2;ratioP2;P2;SDS_P1;SDS_P2;PMS_P1;PMS_P2;Temp;Humidity;BMP_temperature;BMP_pressure;BME280_temperature;BME280_humidity;BME280_pressure;Samples;Min_cycle;Max_cycle;Signal;HPM_P1;HPM_P2
2021/06/30 00:00:29;;;;;;;8.75;7.60;;;20.10;91.20;;;;;;3567113;40;20039;-70
2021/06/30 00:02:55;;;;;;;8.48;7.57;;;20.10;91.10;;;;;;3568505;40;20042;-69
2021/06/30 00:05:20;;;;;;;8.98;8.05;;;20.10;91.00;;;;;;3568183;40;20025;-70
2021/06/30 00:07:46;;;;;;;8.98;8.07;;;20.10;91.10;;;;;;3566005;40;20100;-70
2021/06/30 00:10:12;;;;;;;11.80;8.18;;;20.10;91.10;;;;;;3565200;40;20760;-70
2021/06/30 00:12:38;;;;;;;10.02;8.10;;;20.10;91.10;;;;;;3563805;40;20040;-70
2021/06/30 00:15:09;;;;;;;9.10;8.20;;;20.10;91.00;;;;;;3562719;40;20041;-71
2021/06/30 00:17:35;;;;;;;10.38;9.15;;;20.10;91.00;;;;;;3560061;40;20748;-70
2021/06/30 00:20:01;;;;;;;10.93;8.18;;;20.10;91.00;;;;;;3557921;40;20142;-70
2021/06/30 00:22:26;;;;;;;10.25;8.07;;;20.20;91.00;;;;;;3560366;40;20682;-69
2021/06/30 00:24:52;;;;;;;11.43;9.27;;;20.20;91.10;;;;;;3561611;40;20033;-69
2021/06/30 00:27:18;;;;;;;9.25;8.35;;;20.20;91.10;;;;;;3562120;40;20040;-70
2021/06/30 00:29:44;;;;;;;9.60;8.10;;;20.20;91.10;;;;;;3564785;40;20045;-69
2021/06/30 00:32:09;;;;;;;10.05;9.00;;;20.30;91.30;;;;;;3566478;40;20123;-69
2021/06/30 00:34:35;;;;;;;9.02;8.13;;;20.30;91.30;;;;;;3567367;40;20041;-70
2021/06/30 00:37:01;;;;;;;9.68;8.68;;;20.30;91.30;;;;;;3567200;40;20049;-70
2021/06/30 00:39:26;;;;;;;10.18;9.00;;;20.40;91.20;;;;;;3567859;40;20081;-70
2021/06/30 00:41:54;;;;;;;9.20;8.32;;;20.40;91.00;;;;;;3565791;40;20095;-70
2021/06/30 00:44:19;;;;;;;11.13;9.00;;;20.40;91.00;;;;;;3555504;40;20025;-70
2021/06/30 00:46:45;;;;;;;14.88;8.70;;;20.40;90.90;;;;;;3561781;40;20041;-70
2021/06/30 00:49:11;;;;;;;9.98;8.98;;;20.40;90.90;;;;;;3561511;40;20036;-69
2021/06/30 00:51:37;;;;;;;9.57;8.57;;;20.40;90.90;;;;;;3560041;40;20105;-69
2021/06/30 00:54:03;;;;;;;10.48;8.75;;;20.40;91.00;;;;;;3558767;40;20790;-69
2021/06/30 00:56:29;;;;;;;11.88;9.30;;;20.40;91.20;;;;;;3560210;40;20049;-69
2021/06/30 00:59:00;;;;;;;13.15;9.27;;;20.40;91.30;;;;;;3561822;40;20397;-68
2021/06/30 01:01:27;;;;;;;12.60;9.70;;;20.40;91.20;;;;;;3563877;40;20037;-69
2021/06/30 01:03:53;;;;;;;10.35;9.30;;;20.40;91.30;;;;;;3562279;40;20667;-69
2021/06/30 01:06:19;;;;;;;10.93;9.90;;;20.50;91.30;;;;;;3560759;40;20041;-69
2021/06/30 01:08:46;;;;;;;11.82;9.85;;;20.40;91.10;;;;;;3559949;40;20034;-69
2021/06/30 01:11:12;;;;;;;10.52;9.48;;;20.50;91.10;;;;;;3558799;40;20741;-69
2021/06/30 01:13:40;;;;;;;12.95;9.82;;;20.50;91.20;;;;;;3559849;40;20039;-69
2021/06/30 01:16:07;;;;;;;13.30;10.50;;;20.50;91.10;;;;;;3562577;40;20036;-69
2021/06/30 01:18:34;;;;;;;11.73;10.23;;;20.50;91.10;;;;;;3563131;40;20060;-69
2021/06/30 01:21:01;;;;;;;11.02;9.93;;;20.50;90.80;;;;;;3565121;40;20115;-69
2021/06/30 01:23:27;;;;;;;13.43;10.38;;;20.50;90.70;;;;;;3566782;40;20029;-69
2021/06/30 01:25:53;;;;;;;10.80;9.40;;;20.50;90.80;;;;;;3567563;40;20037;-70
2021/06/30 01:28:20;;;;;;;12.23;10.02;;;20.50;90.80;;;;;;3567829;40;20041;-69
2021/06/30 01:30:50;;;;;;;11.32;10.23;;;20.50;90.80;;;;;;3565496;40;20832;-69
2021/06/30 01:33:17;;;;;;;11.57;10.32;;;20.50;90.80;;;;;;3563202;40;20045;-69
2021/06/30 01:35:43;;;;;;;12.75;11.05;;;20.50;90.80;;;;;;3562510;40;20052;-68
2021/06/30 01:38:09;;;;;;;13.70;12.30;;;20.40;90.90;;;;;;3561430;40;20033;-70
2021/06/30 01:40:35;;;;;;;13.70;11.98;;;20.50;91.00;;;;;;3563843;40;20033;-69
2021/06/30 01:43:01;;;;;;;13.18;11.52;;;20.50;91.00;;;;;;3567751;40;20017;-69
2021/06/30 01:45:27;;;;;;;14.38;12.80;;;20.40;91.00;;;;;;3567134;40;20040;-68
2021/06/30 01:47:53;;;;;;;14.18;12.55;;;20.50;91.10;;;;;;3565447;40;20028;-69
2021/06/30 01:50:20;;;;;;;15.10;13.27;;;20.50;91.10;;;;;;3562213;40;20049;-69
2021/06/30 01:52:46;;;;;;;14.40;12.93;;;20.50;91.00;;;;;;3565314;40;20029;-69
2021/06/30 01:55:13;;;;;;;13.98;12.57;;;20.40;91.00;;;;;;3567061;40;20041;-69
2021/06/30 01:57:48;;;;;;;13.88;12.43;;;20.50;91.00;;;;;;3566089;40;20044;-69
2021/06/30 02:00:17;;;;;;;14.13;12.48;;;20.50;91.00;;;;;;3567078;40;20041;-69
2021/06/30 02:02:43;;;;;;;14.02;12.63;;;20.50;91.10;;;;;;3568005;40;20402;-69
2021/06/30 02:05:12;;;;;;;14.40;12.90;;;20.40;91.10;;;;;;3566907;40;20403;-69
2021/06/30 02:07:38;;;;;;;13.40;11.98;;;20.50;91.20;;;;;;3564300;40;20122;-69
2021/06/30 02:10:08;;;;;;;17.95;12.60;;;20.50;91.10;;;;;;3564861;40;20127;-70
2021/06/30 02:12:34;;;;;;;14.38;12.82;;;20.50;91.10;;;;;;3562375;40;20619;-69
2021/06/30 02:15:00;;;;;;;15.75;13.77;;;20.50;91.00;;;;;;3570396;40;20033;-69
2021/06/30 02:17:26;;;;;;;16.90;13.88;;;20.50;90.90;;;;;;3568993;40;20036;-70
2021/06/30 02:19:52;;;;;;;15.15;13.57;;;20.50;91.00;;;;;;3563163;40;20838;-69
2021/06/30 02:22:18;;;;;;;18.55;13.70;;;20.50;91.10;;;;;;3567399;40;20057;-68
2021/06/30 02:24:44;;;;;;;18.35;14.40;;;20.60;91.20;;;;;;3564260;40;20057;-68
2021/06/30 02:27:10;;;;;;;14.45;12.90;;;20.60;91.30;;;;;;3564816;40;20677;-68
2021/06/30 02:29:36;;;;;;;16.88;14.93;;;20.60;91.10;;;;;;3562558;40;20037;-68
2021/06/30 02:32:03;;;;;;;15.77;14.07;;;20.60;91.10;;;;;;3559779;40;20112;-68
2021/06/30 02:34:28;;;;;;;14.68;13.07;;;20.50;91.30;;;;;;3562861;40;20025;-69
2021/06/30 02:36:54;;;;;;;16.33;14.05;;;20.60;91.40;;;;;;3564557;40;20033;-68
2021/06/30 02:39:20;;;;;;;18.75;15.38;;;20.60;91.50;;;;;;3564621;40;20102;-68
2021/06/30 02:41:45;;;;;;;17.08;13.70;;;20.60;91.50;;;;;;3565433;40;20033;-68
2021/06/30 02:44:11;;;;;;;13.90;12.35;;;20.60;91.50;;;;;;3565069;40;20048;-68
2021/06/30 02:46:37;;;;;;;19.10;14.48;;;20.60;91.20;;;;;;3564207;40;20391;-68
2021/06/30 02:49:03;;;;;;;18.33;14.55;;;20.60;91.10;;;;;;3562521;40;20514;-68
2021/06/30 02:51:29;;;;;;;15.98;14.30;;;20.50;91.30;;;;;;3563933;40;20066;-68
2021/06/30 02:53:55;;;;;;;16.02;14.35;;;20.50;91.50;;;;;;3562652;40;20030;-68
2021/06/30 02:56:21;;;;;;;16.73;14.82;;;20.50;91.50;;;;;;3566584;40;20021;-68
2021/06/30 02:58:48;;;;;;;17.65;14.75;;;20.50;91.60;;;;;;3564217;40;20047;-67
2021/06/30 03:01:14;;;;;;;16.08;14.38;;;20.50;91.60;;;;;;3561869;40;20131;-67
2021/06/30 03:03:40;;;;;;;17.05;15.15;;;20.50;91.60;;;;;;3562581;40;20029;-68
2021/06/30 03:06:06;;;;;;;16.58;14.68;;;20.50;91.70;;;;;;3566853;40;20084;-68
2021/06/30 03:08:31;;;;;;;19.08;14.70;;;20.50;91.70;;;;;;3564710;40;20318;-68
2021/06/30 03:10:57;;;;;;;17.92;14.60;;;20.50;91.80;;;;;;3563653;40;20801;-68
2021/06/30 03:13:23;;;;;;;19.10;16.02;;;20.50;91.90;;;;;;3565295;40;20080;-68
2021/06/30 03:15:51;;;;;;;18.38;15.40;;;20.50;91.90;;;;;;3563767;40;20047;-68
2021/06/30 03:18:18;;;;;;;18.38;16.05;;;20.50;92.00;;;;;;3564852;40;20021;-67
2021/06/30 03:20:43;;;;;;;17.60;15.73;;;20.50;92.10;;;;;;3566154;40;20400;-68
2021/06/30 03:23:09;;;;;;;18.77;15.63;;;20.50;92.00;;;;;;3559509;40;20033;-68
2021/06/30 03:25:35;;;;;;;21.83;15.82;;;20.50;92.10;;;;;;3567480;40;20029;-67
2021/06/30 03:28:00;;;;;;;18.08;15.85;;;20.50;92.10;;;;;;3565265;40;20395;-68
2021/06/30 03:30:26;;;;;;;17.98;15.95;;;20.50;92.10;;;;;;3564135;40;20115;-68
2021/06/30 03:32:52;;;;;;;19.10;15.90;;;20.50;92.40;;;;;;3566109;40;20033;-67
2021/06/30 03:35:17;;;;;;;20.80;16.35;;;20.50;92.20;;;;;;3564322;40;20065;-67
2021/06/30 03:37:43;;;;;;;18.02;16.17;;;20.50;92.20;;;;;;3564742;40;20036;-68
2021/06/30 03:40:09;;;;;;;17.63;15.52;;;20.50;92.20;;;;;;3564364;40;20052;-68
2021/06/30 03:42:35;;;;;;;17.35;15.55;;;20.50;92.10;;;;;;3563391;40;20357;-68
2021/06/30 03:45:01;;;;;;;16.30;14.60;;;20.50;92.10;;;;;;3564666;40;20026;-67
2021/06/30 03:47:27;;;;;;;15.75;14.18;;;20.50;92.00;;;;;;3565635;40;20045;-67
2021/06/30 03:49:52;;;;;;;16.25;14.55;;;20.60;92.00;;;;;;3565100;40;20028;-68
2021/06/30 03:52:18;;;;;;;19.23;15.68;;;20.60;91.90;;;;;;3567268;40;20033;-67
2021/06/30 03:54:44;;;;;;;16.33;14.10;;;20.60;91.80;;;;;;3569107;40;20041;-67
2021/06/30 03:57:10;;;;;;;17.08;14.73;;;20.60;91.80;;;;;;3563592;40;20034;-68
2021/06/30 03:59:35;;;;;;;16.35;14.52;;;20.60;91.80;;;;;;3562642;40;20033;-68
2021/06/30 04:02:01;;;;;;;15.80;14.00;;;20.60;91.80;;;;;;3565189;40;20081;-68
2021/06/30 04:04:26;;;;;;;14.38;12.98;;;20.60;91.70;;;;;;3566159;40;20029;-67
2021/06/30 04:06:52;;;;;;;14.15;12.65;;;20.60;91.60;;;;;;3566598;40;20021;-67
2021/06/30 04:09:18;;;;;;;17.75;13.73;;;20.60;91.70;;;;;;3567155;40;20040;-67
2021/06/30 04:11:43;;;;;;;16.60;14.27;;;20.60;91.60;;;;;;3564321;40;20119;-68
2021/06/30 04:14:10;;;;;;;15.65;14.05;;;20.60;91.70;;;;;;3565363;40;20032;-69
2021/06/30 04:16:36;;;;;;;13.93;12.48;;;20.50;91.70;;;;;;3567363;40;20022;-68
2021/06/30 04:19:02;;;;;;;16.13;14.07;;;20.50;91.70;;;;;;3567004;40;20049;-67
2021/06/30 04:21:28;;;;;;;18.13;13.25;;;20.50;91.60;;;;;;3565705;40;20038;-68
2021/06/30 04:23:54;;;;;;;15.98;12.82;;;20.50;91.60;;;;;;3567047;40;20492;-68
2021/06/30 04:26:20;;;;;;;16.30;14.00;;;20.50;91.60;;;;;;3567608;40;20030;-68
2021/06/30 04:28:47;;;;;;;16.10;13.68;;;20.50;91.70;;;;;;3564608;40;20122;-68
2021/06/30 04:31:13;;;;;;;13.60;12.25;;;20.40;91.70;;;;;;3564753;40;20040;-68
2021/06/30 04:33:39;;;;;;;14.43;12.30;;;20.50;91.90;;;;;;3566005;40;20066;-68
2021/06/30 04:36:04;;;;;;;14.15;12.63;;;20.50;91.90;;;;;;3565299;40;20033;-68
2021/06/30 04:38:30;;;;;;;15.18;13.52;;;20.50;91.80;;;;;;3568679;40;20039;-68
2021/06/30 04:40:56;;;;;;;12.85;11.52;;;20.40;91.90;;;;;;3567073;40;20052;-68
2021/06/30 04:43:21;;;;;;;13.57;11.90;;;20.40;91.90;;;;;;3564573;40;20049;-68
2021/06/30 04:45:48;;;;;;;13.32;11.98;;;20.40;92.00;;;;;;3566799;40;20128;-68
2021/06/30 04:48:15;;;;;;;14.18;11.85;;;20.40;92.00;;;;;;3566008;40;20717;-68
2021/06/30 04:50:41;;;;;;;13.77;11.93;;;20.40;92.10;;;;;;3562510;40;20030;-68
2021/06/30 04:53:07;;;;;;;13.45;11.52;;;20.40;92.30;;;;;;3565047;40;20043;-68
2021/06/30 04:55:33;;;;;;;11.55;10.35;;;20.40;92.00;;;;;;3563090;40;20331;-67
2021/06/30 04:57:58;;;;;;;12.90;11.07;;;20.40;92.00;;;;;;3566007;40;20028;-68
2021/06/30 05:00:24;;;;;;;13.32;11.82;;;20.40;91.80;;;;;;3567895;40;20033;-68
2021/06/30 05:02:50;;;;;;;12.48;11.20;;;20.50;91.90;;;;;;3569312;40;20488;-68
2021/06/30 05:05:16;;;;;;;12.35;11.15;;;20.40;92.00;;;;;;3568269;40;20107;-68
2021/06/30 05:07:41;;;;;;;14.57;12.65;;;20.40;92.00;;;;;;3567709;40;20033;-68
2021/06/30 05:10:08;;;;;;;13.73;12.05;;;20.40;92.10;;;;;;3565344;40;20070;-68
2021/06/30 05:12:33;;;;;;;12.75;11.45;;;20.40;92.30;;;;;;3567044;40;20053;-67
2021/06/30 05:14:59;;;;;;;15.48;12.48;;;20.40;92.30;;;;;;3567626;40;20061;-67
2021/06/30 05:17:25;;;;;;;15.52;13.65;;;20.40;92.20;;;;;;3561604;40;20171;-67
2021/06/30 05:19:51;;;;;;;16.02;12.95;;;20.50;92.00;;;;;;3568616;40;20545;-67
2021/06/30 05:22:16;;;;;;;20.00;14.23;;;20.50;91.90;;;;;;3561933;40;20029;-67
2021/06/30 05:24:42;;;;;;;14.45;12.93;;;20.50;91.60;;;;;;3565347;40;20035;-67
2021/06/30 05:27:08;;;;;;;12.77;11.43;;;20.50;91.50;;;;;;3564257;40;20034;-67
2021/06/30 05:29:34;;;;;;;14.23;12.73;;;20.40;91.70;;;;;;3564056;40;20035;-67
2021/06/30 05:32:00;;;;;;;14.07;11.73;;;20.40;91.90;;;;;;3566298;40;20033;-68
2021/06/30 05:34:25;;;;;;;14.23;12.75;;;20.50;92.00;;;;;;3562199;40;20191;-68
2021/06/30 05:36:52;;;;;;;14.13;12.57;;;20.50;92.10;;;;;;3565208;40;20426;-67
2021/06/30 05:39:19;;;;;;;15.15;13.38;;;20.50;92.10;;;;;;3566586;40;20509;-67
2021/06/30 05:41:46;;;;;;;14.52;13.05;;;20.40;92.20;;;;;;3562737;40;20062;-67
2021/06/30 05:44:14;;;;;;;16.40;14.70;;;20.50;92.20;;;;;;3563759;40;21063;-70
2021/06/30 05:46:41;;;;;;;14.82;13.32;;;20.50;92.20;;;;;;3565929;40;20037;-68
2021/06/30 05:49:07;;;;;;;14.80;12.43;;;20.50;92.10;;;;;;3562327;40;20627;-68
2021/06/30 05:51:33;;;;;;;14.82;12.48;;;20.50;92.10;;;;;;3566599;40;20624;-68
2021/06/30 05:54:00;;;;;;;14.60;13.07;;;20.50;92.20;;;;;;3561036;40;20025;-67
2021/06/30 05:56:26;;;;;;;14.43;12.95;;;20.60;92.20;;;;;;3563403;40;20092;-66
2021/06/30 05:58:52;;;;;;;15.75;13.40;;;20.60;92.30;;;;;;3562958;40;20044;-66
2021/06/30 06:01:18;;;;;;;15.98;12.95;;;20.60;92.30;;;;;;3564987;40;20327;-66
2021/06/30 06:03:44;;;;;;;14.00;12.50;;;20.60;92.20;;;;;;3562930;40;20022;-66
2021/06/30 06:06:10;;;;;;;14.20;12.80;;;20.70;92.10;;;;;;3563395;40;20044;-66
2021/06/30 06:08:36;;;;;;;14.52;12.27;;;20.70;92.10;;;;;;3567549;40;20769;-67
2021/06/30 06:11:03;;;;;;;14.05;12.65;;;20.70;92.00;;;;;;3566256;40;20033;-66
2021/06/30 06:13:28;;;;;;;13.35;12.05;;;20.70;91.90;;;;;;3565386;40;20166;-66
2021/06/30 06:15:54;;;;;;;13.23;11.82;;;20.70;91.90;;;;;;3564709;40;20707;-66
2021/06/30 06:18:20;;;;;;;13.43;12.00;;;20.60;91.90;;;;;;3564724;40;20033;-66
2021/06/30 06:20:45;;;;;;;13.98;11.27;;;20.60;91.90;;;;;;3564856;40;20126;-66
2021/06/30 06:23:11;;;;;;;12.15;10.85;;;20.60;91.90;;;;;;3560337;40;20595;-67
2021/06/30 06:25:37;;;;;;;12.50;11.25;;;20.60;91.80;;;;;;3562516;40;20462;-66
2021/06/30 06:28:04;;;;;;;17.52;12.10;;;20.60;91.70;;;;;;3566617;40;20919;-66
2021/06/30 06:30:31;;;;;;;16.75;10.93;;;20.50;91.70;;;;;;3566009;40;20026;-66
2021/06/30 06:32:57;;;;;;;12.30;11.10;;;20.60;91.70;;;;;;3565067;40;20103;-66
2021/06/30 06:35:23;;;;;;;11.85;10.35;;;20.60;91.60;;;;;;3567887;40;20571;-65
2021/06/30 06:37:49;;;;;;;13.00;11.55;;;20.50;91.50;;;;;;3562588;40;20037;-66
2021/06/30 06:40:15;;;;;;;13.18;11.73;;;20.50;91.60;;;;;;3560929;40;20029;-66
2021/06/30 06:42:41;;;;;;;12.00;10.77;;;20.50;91.60;;;;;;3561872;40;20037;-66
2021/06/30 06:45:09;;;;;;;11.73;10.63;;;20.50;91.60;;;;;;3561587;40;20044;-66
2021/06/30 06:47:35;;;;;;;12.25;10.95;;;20.50;91.70;;;;;;3564041;40;20029;-66
2021/06/30 06:50:02;;;;;;;13.20;11.80;;;20.50;91.70;;;;;;3563401;40;20104;-65
2021/06/30 06:52:28;;;;;;;13.45;12.05;;;20.50;91.70;;;;;;3563837;40;20036;-66
2021/06/30 06:54:53;;;;;;;13.82;12.40;;;20.50;91.70;;;;;;3562095;40;20026;-65
2021/06/30 06:57:19;;;;;;;13.02;11.73;;;20.50;91.70;;;;;;3564593;40;20041;-68
2021/06/30 06:59:45;;;;;;;14.63;12.15;;;20.50;91.70;;;;;;3560392;40;20071;-66
2021/06/30 07:02:10;;;;;;;12.90;11.65;;;20.40;91.80;;;;;;3565431;40;20066;-66
2021/06/30 07:04:36;;;;;;;12.75;11.20;;;20.50;91.80;;;;;;3562931;40;20021;-68
2021/06/30 07:07:02;;;;;;;13.07;11.75;;;20.50;91.80;;;;;;3561186;40;20118;-67
2021/06/30 07:09:28;;;;;;;12.90;11.60;;;20.50;91.70;;;;;;3564130;40;20033;-67
2021/06/30 07:11:53;;;;;;;12.63;11.32;;;20.50;91.70;;;;;;3565053;40;20041;-67
2021/06/30 07:14:19;;;;;;;13.07;11.70;;;20.50;91.70;;;;;;3567061;40;20043;-66
2021/06/30 07:16:45;;;;;;;13.27;11.90;;;20.50;91.70;;;;;;3566614;40;20022;-65
2021/06/30 07:19:10;;;;;;;12.82;11.52;;;20.50;91.70;;;;;;3564895;40;20049;-65
2021/06/30 07:21:36;;;;;;;12.82;11.63;;;20.50;91.80;;;;;;3564712;40;20580;-66
2021/06/30 07:24:03;;;;;;;13.82;12.40;;;20.50;91.80;;;;;;3569280;40;20084;-64
2021/06/30 07:26:30;;;;;;;14.52;13.02;;;20.60;91.90;;;;;;3565952;40;20017;-73
2021/06/30 07:28:56;;;;;;;14.68;12.88;;;20.60;92.00;;;;;;3569336;40;20061;-68
2021/06/30 07:31:22;;;;;;;15.13;13.40;;;20.60;91.90;;;;;;3566415;40;20022;-73
2021/06/30 07:33:49;;;;;;;15.18;13.68;;;20.60;91.80;;;;;;3563453;40;20092;-72
2021/06/30 07:36:16;;;;;;;14.45;13.05;;;20.60;91.90;;;;;;3563598;40;20284;-68
2021/06/30 07:38:43;;;;;;;14.38;12.88;;;20.70;92.20;;;;;;3567713;40;20351;-68
2021/06/30 07:41:09;;;;;;;14.02;12.55;;;20.70;91.80;;;;;;3566016;40;20033;-68
2021/06/30 07:43:35;;;;;;;14.80;13.32;;;20.70;91.70;;;;;;3564346;40;20396;-68
2021/06/30 07:46:01;;;;;;;19.40;17.08;;;20.70;91.70;;;;;;3567873;40;20017;-69
2021/06/30 07:48:26;;;;;;;16.58;14.80;;;20.80;91.80;;;;;;3564714;40;20037;-68
2021/06/30 07:50:52;;;;;;;15.43;13.88;;;20.70;91.70;;;;;;3562982;40;20061;-68
2021/06/30 07:53:18;;;;;;;15.95;14.25;;;20.80;91.60;;;;;;3562472;40;20014;-67
2021/06/30 07:55:46;;;;;;;15.07;13.40;;;20.80;91.50;;;;;;3565344;40;20034;-67
2021/06/30 07:58:12;;;;;;;15.52;13.88;;;20.80;91.50;;;;;;3566081;40;20068;-68
2021/06/30 08:00:38;;;;;;;14.90;13.30;;;20.80;91.40;;;;;;3565365;40;20034;-70
2021/06/30 08:03:04;;;;;;;16.23;13.88;;;20.80;91.30;;;;;;3569244;40;20032;-66
2021/06/30 08:05:32;;;;;;;15.85;14.32;;;20.80;91.40;;;;;;3564349;40;20025;-66
2021/06/30 08:07:58;;;;;;;16.40;14.25;;;20.80;91.40;;;;;;3563793;40;20036;-66
2021/06/30 08:10:23;;;;;;;17.30;15.50;;;20.80;91.60;;;;;;3565950;40;20035;-66
2021/06/30 08:12:49;;;;;;;17.38;15.68;;;20.80;91.70;;;;;;3565932;40;20021;-66
2021/06/30 08:15:15;;;;;;;16.13;14.52;;;20.80;91.70;;;;;;3566943;40;20036;-66
2021/06/30 08:17:44;;;;;;;16.70;15.05;;;20.80;91.70;;;;;;3567929;40;20077;-66
2021/06/30 08:20:11;;;;;;;17.75;15.95;;;20.80;91.60;;;;;;3569145;40;20053;-66
2021/06/30 08:22:36;;;;;;;18.05;15.48;;;20.90;91.50;;;;;;3563103;40;20034;-66
2021/06/30 08:25:03;;;;;;;16.00;14.40;;;20.90;91.40;;;;;;3567038;40;20029;-66
2021/06/30 08:27:29;;;;;;;16.02;14.50;;;20.80;91.30;;;;;;3566697;40;20045;-66
2021/06/30 08:29:55;;;;;;;15.02;13.48;;;20.80;91.40;;;;;;3563701;40;20465;-66
2021/06/30 08:32:24;;;;;;;16.55;14.82;;;20.80;91.50;;;;;;3562602;40;20034;-65
2021/06/30 08:34:50;;;;;;;16.02;14.40;;;20.80;91.60;;;;;;3562812;40;20033;-66
2021/06/30 08:37:19;;;;;;;15.38;13.85;;;20.90;91.60;;;;;;3564458;40;20052;-66
2021/06/30 08:39:45;;;;;;;15.68;13.98;;;20.90;91.50;;;;;;3564352;40;20025;-66
2021/06/30 08:42:11;;;;;;;15.23;13.65;;;20.90;91.30;;;;;;3567601;40;20122;-66
2021/06/30 08:44:37;;;;;;;15.02;13.43;;;20.90;91.40;;;;;;3566475;40;20044;-66
2021/06/30 08:47:03;;;;;;;15.45;13.95;;;20.90;91.50;;;;;;3565027;40;20786;-67
2021/06/30 08:49:30;;;;;;;15.27;13.73;;;21.00;91.50;;;;;;3567341;40;20841;-65
2021/06/30 08:51:57;;;;;;;15.77;14.18;;;21.00;91.60;;;;;;3568265;40;20372;-66
2021/06/30 08:54:24;;;;;;;16.38;14.63;;;21.00;91.40;;;;;;3569485;40;20318;-66
2021/06/30 08:56:51;;;;;;;15.38;13.95;;;21.00;91.40;;;;;;3566547;40;20754;-68
2021/06/30 08:59:17;;;;;;;15.98;14.05;;;21.00;91.30;;;;;;3567975;40;20036;-68
2021/06/30 09:01:44;;;;;;;14.45;12.95;;;21.00;91.10;;;;;;3566785;40;20319;-68
2021/06/30 09:04:12;;;;;;;14.52;13.13;;;21.00;91.10;;;;;;3566296;40;20749;-67
2021/06/30 09:06:39;;;;;;;16.17;14.50;;;21.00;91.30;;;;;;3564907;40;20142;-67
2021/06/30 09:09:12;;;;;;;15.02;13.60;;;21.00;91.30;;;;;;3565111;40;20037;-68
2021/06/30 09:11:38;;;;;;;14.35;12.70;;;20.90;91.40;;;;;;3561570;40;20040;-67
2021/06/30 09:14:23;;;;;;;15.20;12.30;;;21.00;91.50;;;;;;3568099;40;20121;-67
2021/06/30 09:17:05;;;;;;;13.75;12.38;;;21.00;91.50;;;;;;3567368;40;20138;-67
2021/06/30 09:19:46;;;;;;;14.02;12.57;;;21.00;91.40;;;;;;3563928;40;20041;-67
2021/06/30 09:22:12;;;;;;;13.63;12.23;;;21.00;91.30;;;;;;3567427;40;20666;-66
2021/06/30 09:24:38;;;;;;;13.02;11.73;;;20.90;91.30;;;;;;3564137;40;20134;-66
2021/06/30 09:27:05;;;;;;;12.32;11.13;;;20.90;91.30;;;;;;3563327;40;20034;-66
2021/06/30 09:29:31;;;;;;;13.45;12.05;;;20.90;91.40;;;;;;3562885;40;20053;-66
2021/06/30 09:31:57;;;;;;;12.75;11.48;;;20.90;91.30;;;;;;3565008;40;20052;-66
2021/06/30 09:34:25;;;;;;;12.90;11.60;;;20.90;91.10;;;;;;3565362;40;20033;-67
2021/06/30 09:36:59;;;;;;;14.20;12.02;;;20.90;91.20;;;;;;3565097;40;20107;-66
2021/06/30 09:39:25;;;;;;;12.40;11.20;;;20.90;91.30;;;;;;3566981;40;20025;-67
2021/06/30 09:42:03;;;;;;;13.85;11.60;;;20.90;91.20;;;;;;3565028;40;20120;-67
2021/06/30 09:44:30;;;;;;;13.60;11.10;;;20.90;91.30;;;;;;3564405;40;20028;-67
2021/06/30 09:46:56;;;;;;;15.75;12.25;;;20.90;91.20;;;;;;3566172;40;20037;-67
2021/06/30 09:49:23;;;;;;;11.68;10.57;;;20.90;91.20;;;;;;3565894;40;20335;-68
2021/06/30 09:52:10;;;;;;;10.95;9.85;;;20.90;91.10;;;;;;3566363;40;20033;-67
2021/06/30 09:54:41;;;;;;;12.85;10.07;;;20.80;91.20;;;;;;3564592;40;20022;-66
2021/06/30 09:57:12;;;;;;;11.73;9.80;;;20.90;91.30;;;;;;3561802;40;20779;-67
2021/06/30 09:59:43;;;;;;;10.95;9.88;;;20.90;91.20;;;;;;3563571;40;20665;-66
2021/06/30 10:02:17;;;;;;;10.85;9.75;;;20.90;91.10;;;;;;3564381;40;20607;-66
2021/06/30 10:04:58;;;;;;;11.00;9.90;;;20.90;91.00;;;;;;3565718;40;20047;-67
2021/06/30 10:07:25;;;;;;;11.55;10.45;;;21.00;91.20;;;;;;3562837;40;20037;-67
2021/06/30 10:09:51;;;;;;;11.55;10.35;;;21.00;91.20;;;;;;3564112;40;20029;-66
2021/06/30 10:12:21;;;;;;;11.23;10.07;;;21.00;91.30;;;;;;3567266;40;20738;-66
2021/06/30 10:14:46;;;;;;;10.45;9.45;;;21.10;91.20;;;;;;3564374;40;20063;-66
2021/06/30 10:17:13;;;;;;;10.40;9.40;;;21.10;91.10;;;;;;3565274;40;20419;-66
2021/06/30 10:19:40;;;;;;;9.85;8.95;;;21.20;91.00;;;;;;3563309;40;20051;-66
2021/06/30 10:22:08;;;;;;;11.13;9.52;;;21.30;91.00;;;;;;3566637;40;20033;-66
2021/06/30 10:24:35;;;;;;;9.73;8.82;;;21.30;90.90;;;;;;3565963;40;20062;-67
2021/06/30 10:27:02;;;;;;;10.32;9.23;;;21.30;90.80;;;;;;3563964;40;20040;-66
2021/06/30 10:29:34;;;;;;;10.02;8.57;;;21.30;90.80;;;;;;3563456;40;20699;-68
2021/06/30 10:32:06;;;;;;;9.05;8.20;;;21.30;90.80;;;;;;3562781;40;20042;-67
2021/06/30 10:34:35;;;;;;;8.13;7.40;;;21.30;90.60;;;;;;3564521;40;20122;-67
2021/06/30 10:37:01;;;;;;;8.65;7.85;;;21.30;90.40;;;;;;3565118;40;20045;-67
2021/06/30 10:39:37;;;;;;;7.88;7.07;;;21.20;90.40;;;;;;3563581;40;20080;-67
2021/06/30 10:42:43;;;;;;;;;;;21.20;90.50;;;;;;3563414;40;20804;-67
2021/06/30 10:45:14;;;;;;;7.55;6.85;;;21.20;90.20;;;;;;3523848;40;19940;-66
2021/06/30 10:47:54;;;;;;;7.53;6.82;;;21.20;90.20;;;;;;3529736;40;20456;-66
2021/06/30 10:50:23;;;;;;;8.13;6.78;;;21.10;90.10;;;;;;3545147;40;20044;-66
2021/06/30 10:52:51;;;;;;;7.63;6.93;;;21.10;90.20;;;;;;3563262;40;20040;-67
2021/06/30 10:58:15;;;;;;;8.15;7.35;;;21.00;90.70;;;;;;3563778;40;20048;-66
2021/06/30 11:00:55;;;;;;;9.23;7.75;;;21.00;90.70;;;;;;3567905;40;20044;-66
2021/06/30 11:03:34;;;;;;;8.20;7.50;;;21.00;90.80;;;;;;3566225;40;20033;-66
2021/06/30 11:06:10;;;;;;;8.63;7.82;;;21.00;90.90;;;;;;3564979;40;20025;-68
2021/06/30 11:08:44;;;;;;;10.07;9.10;;;21.00;91.00;;;;;;3568379;40;20040;-67
2021/06/30 11:11:12;;;;;;;9.48;8.52;;;21.00;91.00;;;;;;3564838;40;20048;-66
2021/06/30 11:13:59;;;;;;;8.88;7.90;;;21.00;91.10;;;;;;3567924;40;20029;-66
2021/06/30 11:16:41;;;;;;;8.77;7.97;;;20.90;91.20;;;;;;3566704;40;20824;-67
2021/06/30 11:19:17;;;;;;;9.85;8.35;;;20.90;91.30;;;;;;3566938;40;20037;-67
2021/06/30 11:21:43;;;;;;;;;;;20.80;91.30;;;;;;3563934;40;20053;-66
2021/06/30 11:24:47;;;;;;;10.60;8.52;;;20.80;91.20;;;;;;3561884;40;19936;-73
2021/06/30 11:27:20;;;;;;;8.27;7.43;;;20.80;91.30;;;;;;3563499;40;20034;-73
2021/06/30 11:29:53;;;;;;;5.50;4.43;;;20.80;91.30;;;;;;3562242;40;20029;-73
2021/06/30 11:32:31;;;;;;;15.90;4.07;;;20.80;91.00;;;;;;3568313;40;20060;-74
2021/06/30 11:34:58;;;;;;;4.90;4.40;;;20.70;91.10;;;;;;3558505;40;20085;-70
2021/06/30 11:37:26;;;;;;;5.50;4.90;;;20.70;91.00;;;;;;3571296;40;20725;-69
2021/06/30 11:39:55;;;;;;;6.13;5.22;;;20.60;90.80;;;;;;3562508;40;20613;-67
2021/06/30 11:42:34;;;;;;;6.35;5.55;;;20.50;91.00;;;;;;3566946;40;20412;-67
2021/06/30 11:44:59;;;;;;;11.60;6.20;;;20.50;91.10;;;;;;3564024;40;20599;-66
2021/06/30 11:47:26;;;;;;;11.85;5.82;;;20.50;91.00;;;;;;3565835;40;20021;-67
2021/06/30 11:50:03;;;;;;;6.90;5.25;;;20.40;91.00;;;;;;3565653;40;20029;-67
2021/06/30 11:52:29;;;;;;;6.13;5.35;;;20.30;90.90;;;;;;3564010;40;20668;-67
2021/06/30 11:54:56;;;;;;;5.97;5.22;;;20.20;91.10;;;;;;3569513;40;20028;-67
2021/06/30 11:57:22;;;;;;;6.05;5.45;;;20.10;91.00;;;;;;3569702;40;20029;-70
2021/06/30 12:00:07;;;;;;;5.72;5.22;;;20.00;91.40;;;;;;3566211;40;20151;-71
2021/06/30 12:02:49;;;;;;;4.50;4.10;;;20.00;91.60;;;;;;3563326;40;20058;-68
2021/06/30 12:05:15;;;;;;;4.68;4.10;;;20.00;91.70;;;;;;3566509;40;20037;-70
2021/06/30 12:07:42;;;;;;;4.80;4.03;;;20.00;91.60;;;;;;3568899;40;20033;-69
2021/06/30 12:10:09;;;;;;;4.70;4.25;;;20.00;91.60;;;;;;3567500;40;20025;-71
2021/06/30 12:12:35;;;;;;;4.22;3.67;;;20.00;91.60;;;;;;3567654;40;20033;-69
2021/06/30 12:15:03;;;;;;;8.98;5.22;;;20.00;91.60;;;;;;3562851;40;20539;-68
2021/06/30 12:17:29;;;;;;;7.43;5.55;;;20.10;91.50;;;;;;3563532;40;20034;-75
2021/06/30 12:19:55;;;;;;;6.82;6.13;;;20.10;91.30;;;;;;3565185;40;20048;-72
2021/06/30 12:22:28;;;;;;;7.45;6.35;;;20.00;91.50;;;;;;3565639;40;20033;-70
2021/06/30 12:25:00;;;;;;;8.20;7.05;;;20.10;91.20;;;;;;3566550;40;20091;-70
2021/06/30 12:27:33;;;;;;;6.50;5.90;;;20.00;91.30;;;;;;3568045;40;20108;-69
2021/06/30 12:30:01;;;;;;;7.07;6.15;;;20.00;91.30;;;;;;3567797;40;20033;-69
2021/06/30 12:32:28;;;;;;;6.43;5.78;;;19.90;91.60;;;;;;3567425;40;20739;-69
2021/06/30 12:35:02;;;;;;;6.47;5.47;;;19.90;91.60;;;;;;3565359;40;20077;-68
2021/06/30 12:37:29;;;;;;;6.07;5.22;;;19.90;91.50;;;;;;3565193;40;20021;-72